Orcutt, California
Current Conditions -  °F | °C
As of 6:51 PM on Friday 21 Nov 2014 (Local Time) from KSMX Reporting Station
Clear Clear  
Wind Chill: 58°   Ceiling: Unl
Heat Index: 58°   Visibility: 10mi
Dew Point: 47°   Wind: 9mph
Humidity: 67%   Direction: 340°NNW
Pressure: 30.09"   Gusts: NA
Location:  34.8654°N, 120.435°W
Report Text: KSMX 220251Z 34008KT 10SM CLR 14/08 A3009 RMK AO2 SLP192 T01440083 52020
Loading
Personal Weather Stations






























Interactive Weather Map New forecast layout! Learn more

10-Day Weather Forecast

Advertisements
Track Severe Weather on mobile